sensor_id;sensor_type;location;lat;lon;timestamp;P1;durP1;ratioP1;P2;durP2;ratioP2
679;SDS011;322;48.846;9.230;2023-09-19T00:02:14;6.63;;;1.00;;
679;SDS011;322;48.846;9.230;2023-09-19T00:04:42;6.50;;;1.03;;
679;SDS011;322;48.846;9.230;2023-09-19T00:07:11;6.53;;;0.90;;
679;SDS011;322;48.846;9.230;2023-09-19T00:09:40;8.10;;;1.00;;
679;SDS011;322;48.846;9.230;2023-09-19T00:12:10;6.50;;;1.00;;
679;SDS011;322;48.846;9.230;2023-09-19T00:14:39;6.70;;;1.30;;
679;SDS011;322;48.846;9.230;2023-09-19T00:17:07;6.57;;;1.10;;
679;SDS011;322;48.846;9.230;2023-09-19T00:19:37;7.00;;;1.20;;
679;SDS011;322;48.846;9.230;2023-09-19T00:22:05;6.40;;;1.00;;
679;SDS011;322;48.846;9.230;2023-09-19T00:24:33;5.97;;;1.00;;
679;SDS011;322;48.846;9.230;2023-09-19T00:27:01;6.93;;;1.03;;
679;SDS011;322;48.846;9.230;2023-09-19T00:29:30;6.60;;;1.10;;
679;SDS011;322;48.846;9.230;2023-09-19T00:31:59;7.50;;;1.17;;
679;SDS011;322;48.846;9.230;2023-09-19T00:34:30;6.63;;;1.10;;
679;SDS011;322;48.846;9.230;2023-09-19T00:37:02;5.90;;;0.90;;
679;SDS011;322;48.846;9.230;2023-09-19T00:39:30;6.50;;;0.80;;
679;SDS011;322;48.846;9.230;2023-09-19T00:41:58;6.23;;;0.73;;
679;SDS011;322;48.846;9.230;2023-09-19T00:44:31;6.37;;;1.00;;
679;SDS011;322;48.846;9.230;2023-09-19T00:47:00;6.93;;;1.07;;
679;SDS011;322;48.846;9.230;2023-09-19T00:49:29;5.90;;;0.80;;
679;SDS011;322;48.846;9.230;2023-09-19T00:51:59;6.37;;;1.10;;
679;SDS011;322;48.846;9.230;2023-09-19T00:54:28;7.83;;;1.17;;
679;SDS011;322;48.846;9.230;2023-09-19T00:56:56;6.30;;;1.10;;
679;SDS011;322;48.846;9.230;2023-09-19T00:59:25;7.47;;;1.20;;
679;SDS011;322;48.846;9.230;2023-09-19T01:01:52;5.90;;;0.90;;
679;SDS011;322;48.846;9.230;2023-09-19T01:04:22;6.10;;;0.90;;
679;SDS011;322;48.846;9.230;2023-09-19T01:06:51;6.40;;;1.20;;
679;SDS011;322;48.846;9.230;2023-09-19T01:09:19;7.30;;;0.97;;
679;SDS011;322;48.846;9.230;2023-09-19T01:11:50;7.40;;;1.17;;
679;SDS011;322;48.846;9.230;2023-09-19T01:14:24;6.80;;;0.87;;
679;SDS011;322;48.846;9.230;2023-09-19T01:17:00;6.20;;;0.80;;
679;SDS011;322;48.846;9.230;2023-09-19T01:19:39;6.57;;;1.00;;
679;SDS011;322;48.846;9.230;2023-09-19T01:22:32;6.07;;;0.80;;
679;SDS011;322;48.846;9.230;2023-09-19T01:28:29;6.10;;;0.90;;
679;SDS011;322;48.846;9.230;2023-09-19T01:31:06;6.50;;;1.20;;
679;SDS011;322;48.846;9.230;2023-09-19T01:33:57;6.57;;;1.00;;
679;SDS011;322;48.846;9.230;2023-09-19T01:36:31;6.20;;;0.90;;
679;SDS011;322;48.846;9.230;2023-09-19T01:39:02;6.30;;;1.17;;
679;SDS011;322;48.846;9.230;2023-09-19T01:41:47;6.17;;;1.00;;
679;SDS011;322;48.846;9.230;2023-09-19T01:44:25;6.40;;;1.10;;
679;SDS011;322;48.846;9.230;2023-09-19T01:47:01;6.60;;;1.00;;
679;SDS011;322;48.846;9.230;2023-09-19T01:49:41;7.13;;;1.10;;
679;SDS011;322;48.846;9.230;2023-09-19T01:52:16;6.30;;;0.87;;
679;SDS011;322;48.846;9.230;2023-09-19T01:54:49;6.00;;;0.83;;
679;SDS011;322;48.846;9.230;2023-09-19T01:57:20;10.37;;;1.90;;
679;SDS011;322;48.846;9.230;2023-09-19T02:00:01;6.30;;;0.90;;
679;SDS011;322;48.846;9.230;2023-09-19T02:02:34;6.53;;;1.03;;
679;SDS011;322;48.846;9.230;2023-09-19T02:05:05;6.37;;;0.97;;
679;SDS011;322;48.846;9.230;2023-09-19T02:07:33;7.60;;;1.00;;
679;SDS011;322;48.846;9.230;2023-09-19T02:10:02;6.10;;;0.87;;
679;SDS011;322;48.846;9.230;2023-09-19T02:12:31;6.60;;;0.93;;
679;SDS011;322;48.846;9.230;2023-09-19T02:15:00;6.73;;;0.80;;
679;SDS011;322;48.846;9.230;2023-09-19T02:17:28;8.20;;;1.03;;
679;SDS011;322;48.846;9.230;2023-09-19T02:19:58;8.47;;;0.87;;
679;SDS011;322;48.846;9.230;2023-09-19T02:22:27;6.17;;;0.90;;
679;SDS011;322;48.846;9.230;2023-09-19T02:24:55;7.03;;;0.73;;
679;SDS011;322;48.846;9.230;2023-09-19T02:27:26;6.13;;;1.00;;
679;SDS011;322;48.846;9.230;2023-09-19T02:29:54;12.10;;;1.40;;
679;SDS011;322;48.846;9.230;2023-09-19T02:32:23;5.97;;;0.83;;
679;SDS011;322;48.846;9.230;2023-09-19T02:34:51;7.33;;;0.90;;
679;SDS011;322;48.846;9.230;2023-09-19T02:37:21;7.10;;;1.00;;
679;SDS011;322;48.846;9.230;2023-09-19T02:39:49;6.80;;;0.93;;
679;SDS011;322;48.846;9.230;2023-09-19T02:42:17;6.37;;;0.97;;
679;SDS011;322;48.846;9.230;2023-09-19T02:44:45;6.70;;;0.80;;
679;SDS011;322;48.846;9.230;2023-09-19T02:47:14;5.87;;;0.70;;
679;SDS011;322;48.846;9.230;2023-09-19T02:49:43;7.27;;;1.00;;
679;SDS011;322;48.846;9.230;2023-09-19T02:52:11;6.20;;;1.00;;
679;SDS011;322;48.846;9.230;2023-09-19T02:54:42;6.17;;;1.10;;
679;SDS011;322;48.846;9.230;2023-09-19T02:57:11;6.60;;;0.90;;
679;SDS011;322;48.846;9.230;2023-09-19T02:59:40;6.80;;;0.80;;
679;SDS011;322;48.846;9.230;2023-09-19T03:02:09;6.30;;;0.87;;
679;SDS011;322;48.846;9.230;2023-09-19T03:04:37;7.07;;;1.10;;
679;SDS011;322;48.846;9.230;2023-09-19T03:07:05;6.10;;;0.90;;
679;SDS011;322;48.846;9.230;2023-09-19T03:09:33;5.77;;;0.60;;
679;SDS011;322;48.846;9.230;2023-09-19T03:12:03;6.10;;;1.10;;
679;SDS011;322;48.846;9.230;2023-09-19T03:14:32;5.90;;;0.70;;
679;SDS011;322;48.846;9.230;2023-09-19T03:17:01;6.53;;;1.30;;
679;SDS011;322;48.846;9.230;2023-09-19T03:19:31;6.67;;;0.80;;
679;SDS011;322;48.846;9.230;2023-09-19T03:22:00;5.97;;;0.90;;
679;SDS011;322;48.846;9.230;2023-09-19T03:24:29;6.30;;;0.90;;
679;SDS011;322;48.846;9.230;2023-09-19T03:26:58;6.10;;;0.90;;
679;SDS011;322;48.846;9.230;2023-09-19T03:29:27;7.17;;;0.73;;
679;SDS011;322;48.846;9.230;2023-09-19T03:31:55;6.80;;;1.20;;
679;SDS011;322;48.846;9.230;2023-09-19T03:34:23;6.20;;;0.80;;
679;SDS011;322;48.846;9.230;2023-09-19T03:36:51;6.20;;;0.90;;
679;SDS011;322;48.846;9.230;2023-09-19T03:39:19;7.10;;;0.80;;
679;SDS011;322;48.846;9.230;2023-09-19T03:41:47;6.20;;;0.90;;
679;SDS011;322;48.846;9.230;2023-09-19T03:44:16;7.40;;;0.90;;
679;SDS011;322;48.846;9.230;2023-09-19T03:46:45;6.03;;;0.87;;
679;SDS011;322;48.846;9.230;2023-09-19T03:49:13;6.20;;;0.80;;
679;SDS011;322;48.846;9.230;2023-09-19T03:51:41;6.57;;;0.80;;
679;SDS011;322;48.846;9.230;2023-09-19T03:54:09;5.80;;;0.73;;
679;SDS011;322;48.846;9.230;2023-09-19T03:56:37;6.47;;;1.37;;
679;SDS011;322;48.846;9.230;2023-09-19T03:59:05;6.90;;;1.43;;
679;SDS011;322;48.846;9.230;2023-09-19T04:01:34;7.23;;;1.20;;
679;SDS011;322;48.846;9.230;2023-09-19T04:04:05;6.97;;;1.57;;
679;SDS011;322;48.846;9.230;2023-09-19T04:06:35;6.10;;;1.13;;
679;SDS011;322;48.846;9.230;2023-09-19T04:09:03;6.90;;;1.27;;
679;SDS011;322;48.846;9.230;2023-09-19T04:11:33;6.20;;;1.00;;
679;SDS011;322;48.846;9.230;2023-09-19T04:14:02;7.20;;;1.00;;
679;SDS011;322;48.846;9.230;2023-09-19T04:16:31;7.03;;;1.17;;
679;SDS011;322;48.846;9.230;2023-09-19T04:18:59;6.73;;;1.27;;
679;SDS011;322;48.846;9.230;2023-09-19T04:21:30;6.90;;;1.40;;
679;SDS011;322;48.846;9.230;2023-09-19T04:23:58;9.20;;;1.53;;
679;SDS011;322;48.846;9.230;2023-09-19T04:26:26;6.33;;;1.30;;
679;SDS011;322;48.846;9.230;2023-09-19T04:28:54;6.60;;;1.07;;
679;SDS011;322;48.846;9.230;2023-09-19T04:31:22;7.00;;;1.70;;
679;SDS011;322;48.846;9.230;2023-09-19T04:33:50;6.60;;;1.10;;
679;SDS011;322;48.846;9.230;2023-09-19T04:36:19;7.60;;;1.27;;
679;SDS011;322;48.846;9.230;2023-09-19T04:39:02;6.50;;;1.20;;
679;SDS011;322;48.846;9.230;2023-09-19T04:41:33;6.23;;;1.20;;
679;SDS011;322;48.846;9.230;2023-09-19T04:44:03;6.80;;;1.40;;
679;SDS011;322;48.846;9.230;2023-09-19T04:46:31;6.87;;;1.53;;
679;SDS011;322;48.846;9.230;2023-09-19T04:49:02;7.83;;;1.50;;
679;SDS011;322;48.846;9.230;2023-09-19T04:51:30;8.13;;;1.73;;
679;SDS011;322;48.846;9.230;2023-09-19T04:54:02;8.10;;;1.40;;
679;SDS011;322;48.846;9.230;2023-09-19T04:56:31;8.73;;;1.53;;
679;SDS011;322;48.846;9.230;2023-09-19T04:59:00;6.93;;;1.30;;
679;SDS011;322;48.846;9.230;2023-09-19T05:01:31;7.53;;;1.83;;
679;SDS011;322;48.846;9.230;2023-09-19T05:04:03;7.17;;;1.80;;
679;SDS011;322;48.846;9.230;2023-09-19T05:06:31;6.77;;;1.33;;
679;SDS011;322;48.846;9.230;2023-09-19T05:09:01;7.30;;;1.40;;
679;SDS011;322;48.846;9.230;2023-09-19T05:11:31;6.50;;;1.50;;
679;SDS011;322;48.846;9.230;2023-09-19T05:14:00;7.17;;;1.57;;
679;SDS011;322;48.846;9.230;2023-09-19T05:16:30;7.20;;;1.70;;
679;SDS011;322;48.846;9.230;2023-09-19T05:18:58;7.33;;;1.50;;
679;SDS011;322;48.846;9.230;2023-09-19T05:21:28;7.57;;;1.50;;
679;SDS011;322;48.846;9.230;2023-09-19T05:23:57;6.60;;;1.30;;
679;SDS011;322;48.846;9.230;2023-09-19T05:26:26;6.93;;;1.30;;
679;SDS011;322;48.846;9.230;2023-09-19T05:28:54;7.83;;;1.40;;
679;SDS011;322;48.846;9.230;2023-09-19T05:31:22;6.63;;;1.53;;
679;SDS011;322;48.846;9.230;2023-09-19T05:33:51;6.67;;;1.50;;
679;SDS011;322;48.846;9.230;2023-09-19T05:36:20;8.00;;;1.97;;
679;SDS011;322;48.846;9.230;2023-09-19T05:38:49;7.13;;;1.77;;
679;SDS011;322;48.846;9.230;2023-09-19T05:41:17;7.10;;;1.80;;
679;SDS011;322;48.846;9.230;2023-09-19T05:43:46;7.67;;;2.13;;
679;SDS011;322;48.846;9.230;2023-09-19T05:46:16;7.60;;;1.97;;
679;SDS011;322;48.846;9.230;2023-09-19T05:48:45;9.47;;;1.97;;
679;SDS011;322;48.846;9.230;2023-09-19T05:51:16;9.23;;;1.90;;
679;SDS011;322;48.846;9.230;2023-09-19T05:53:46;7.40;;;1.80;;
679;SDS011;322;48.846;9.230;2023-09-19T05:56:14;7.47;;;1.70;;
679;SDS011;322;48.846;9.230;2023-09-19T05:58:46;6.70;;;1.50;;
679;SDS011;322;48.846;9.230;2023-09-19T06:01:16;8.80;;;2.10;;
679;SDS011;322;48.846;9.230;2023-09-19T06:03:44;8.27;;;1.60;;
679;SDS011;322;48.846;9.230;2023-09-19T06:06:12;8.60;;;1.90;;
679;SDS011;322;48.846;9.230;2023-09-19T06:08:40;8.50;;;1.80;;
679;SDS011;322;48.846;9.230;2023-09-19T06:11:10;9.20;;;2.10;;
679;SDS011;322;48.846;9.230;2023-09-19T06:13:38;8.70;;;2.10;;
679;SDS011;322;48.846;9.230;2023-09-19T06:16:08;10.57;;;2.70;;
679;SDS011;322;48.846;9.230;2023-09-19T06:18:36;7.60;;;2.40;;
679;SDS011;322;48.846;9.230;2023-09-19T06:21:04;9.30;;;2.50;;
679;SDS011;322;48.846;9.230;2023-09-19T06:23:34;9.73;;;2.50;;
679;SDS011;322;48.846;9.230;2023-09-19T06:26:02;9.87;;;2.50;;
679;SDS011;322;48.846;9.230;2023-09-19T06:28:33;9.63;;;2.77;;
679;SDS011;322;48.846;9.230;2023-09-19T06:31:01;7.80;;;2.10;;
679;SDS011;322;48.846;9.230;2023-09-19T06:33:34;7.77;;;2.10;;
679;SDS011;322;48.846;9.230;2023-09-19T06:36:05;8.43;;;2.20;;
679;SDS011;322;48.846;9.230;2023-09-19T06:38:34;9.27;;;2.73;;
679;SDS011;322;48.846;9.230;2023-09-19T06:41:02;8.70;;;2.20;;
679;SDS011;322;48.846;9.230;2023-09-19T06:43:33;8.13;;;2.50;;
679;SDS011;322;48.846;9.230;2023-09-19T06:46:02;7.20;;;2.20;;
679;SDS011;322;48.846;9.230;2023-09-19T06:48:30;8.40;;;2.33;;
679;SDS011;322;48.846;9.230;2023-09-19T06:51:01;8.03;;;2.03;;
679;SDS011;322;48.846;9.230;2023-09-19T06:53:31;10.10;;;2.27;;
679;SDS011;322;48.846;9.230;2023-09-19T06:55:59;7.50;;;2.13;;
679;SDS011;322;48.846;9.230;2023-09-19T06:58:27;9.17;;;2.00;;
679;SDS011;322;48.846;9.230;2023-09-19T07:00:55;7.53;;;2.00;;
679;SDS011;322;48.846;9.230;2023-09-19T07:03:23;8.80;;;2.20;;
679;SDS011;322;48.846;9.230;2023-09-19T07:05:53;9.20;;;2.10;;
679;SDS011;322;48.846;9.230;2023-09-19T07:08:23;10.10;;;3.07;;
679;SDS011;322;48.846;9.230;2023-09-19T07:10:51;7.60;;;2.07;;
679;SDS011;322;48.846;9.230;2023-09-19T07:13:20;8.17;;;2.40;;
679;SDS011;322;48.846;9.230;2023-09-19T07:15:48;8.43;;;2.53;;
679;SDS011;322;48.846;9.230;2023-09-19T07:18:17;9.50;;;2.63;;
679;SDS011;322;48.846;9.230;2023-09-19T07:20:46;9.00;;;1.90;;
679;SDS011;322;48.846;9.230;2023-09-19T07:23:16;8.60;;;2.37;;
679;SDS011;322;48.846;9.230;2023-09-19T07:25:48;9.23;;;2.07;;
679;SDS011;322;48.846;9.230;2023-09-19T07:28:17;7.50;;;1.70;;
679;SDS011;322;48.846;9.230;2023-09-19T07:30:45;8.97;;;2.23;;
679;SDS011;322;48.846;9.230;2023-09-19T07:33:13;7.60;;;1.80;;
679;SDS011;322;48.846;9.230;2023-09-19T07:35:44;8.13;;;1.80;;
679;SDS011;322;48.846;9.230;2023-09-19T07:38:13;9.73;;;1.97;;
679;SDS011;322;48.846;9.230;2023-09-19T07:40:41;8.23;;;1.80;;
679;SDS011;322;48.846;9.230;2023-09-19T07:43:11;8.37;;;2.27;;
679;SDS011;322;48.846;9.230;2023-09-19T07:45:39;8.50;;;1.80;;
679;SDS011;322;48.846;9.230;2023-09-19T07:48:07;7.63;;;1.47;;
679;SDS011;322;48.846;9.230;2023-09-19T07:50:41;7.70;;;2.03;;
679;SDS011;322;48.846;9.230;2023-09-19T07:53:10;7.77;;;1.97;;
679;SDS011;322;48.846;9.230;2023-09-19T07:55:39;7.70;;;2.00;;
679;SDS011;322;48.846;9.230;2023-09-19T07:58:08;9.30;;;1.47;;
679;SDS011;322;48.846;9.230;2023-09-19T08:00:38;7.57;;;1.60;;
679;SDS011;322;48.846;9.230;2023-09-19T08:03:06;8.57;;;1.87;;
679;SDS011;322;48.846;9.230;2023-09-19T08:05:43;12.60;;;1.80;;
679;SDS011;322;48.846;9.230;2023-09-19T08:08:12;10.37;;;1.83;;
679;SDS011;322;48.846;9.230;2023-09-19T08:10:41;8.30;;;1.90;;
679;SDS011;322;48.846;9.230;2023-09-19T08:13:12;9.50;;;1.63;;
679;SDS011;322;48.846;9.230;2023-09-19T08:15:44;10.30;;;2.00;;
679;SDS011;322;48.846;9.230;2023-09-19T08:18:12;7.80;;;1.67;;
679;SDS011;322;48.846;9.230;2023-09-19T08:20:41;9.83;;;1.87;;
679;SDS011;322;48.846;9.230;2023-09-19T08:23:12;8.07;;;1.60;;
679;SDS011;322;48.846;9.230;2023-09-19T08:25:40;8.60;;;1.73;;
679;SDS011;322;48.846;9.230;2023-09-19T08:28:08;7.00;;;1.40;;
679;SDS011;322;48.846;9.230;2023-09-19T08:30:38;6.90;;;1.13;;
679;SDS011;322;48.846;9.230;2023-09-19T08:33:09;7.77;;;1.80;;
679;SDS011;322;48.846;9.230;2023-09-19T08:35:37;7.53;;;1.40;;
679;SDS011;322;48.846;9.230;2023-09-19T08:38:06;6.30;;;1.10;;
679;SDS011;322;48.846;9.230;2023-09-19T08:40:36;7.00;;;1.90;;
679;SDS011;322;48.846;9.230;2023-09-19T08:43:06;9.20;;;1.80;;
679;SDS011;322;48.846;9.230;2023-09-19T08:45:34;6.80;;;1.30;;
679;SDS011;322;48.846;9.230;2023-09-19T08:48:08;8.53;;;1.40;;
679;SDS011;322;48.846;9.230;2023-09-19T08:50:47;7.40;;;1.30;;
679;SDS011;322;48.846;9.230;2023-09-19T08:53:19;7.10;;;1.40;;
679;SDS011;322;48.846;9.230;2023-09-19T08:55:53;7.20;;;1.37;;
679;SDS011;322;48.846;9.230;2023-09-19T08:58:25;7.77;;;1.40;;
679;SDS011;322;48.846;9.230;2023-09-19T09:00:56;7.53;;;1.57;;
679;SDS011;322;48.846;9.230;2023-09-19T09:03:30;7.57;;;1.30;;
679;SDS011;322;48.846;9.230;2023-09-19T09:06:01;7.70;;;1.50;;
679;SDS011;322;48.846;9.230;2023-09-19T09:08:30;7.60;;;1.47;;
679;SDS011;322;48.846;9.230;2023-09-19T09:10:58;7.20;;;1.30;;
679;SDS011;322;48.846;9.230;2023-09-19T09:13:27;10.27;;;1.50;;
679;SDS011;322;48.846;9.230;2023-09-19T09:15:57;7.50;;;1.10;;
679;SDS011;322;48.846;9.230;2023-09-19T09:18:25;6.90;;;1.20;;
679;SDS011;322;48.846;9.230;2023-09-19T09:20:55;6.40;;;1.23;;
679;SDS011;322;48.846;9.230;2023-09-19T09:23:23;6.90;;;1.33;;
679;SDS011;322;48.846;9.230;2023-09-19T09:25:52;6.57;;;1.13;;
679;SDS011;322;48.846;9.230;2023-09-19T09:28:27;8.07;;;1.83;;
679;SDS011;322;48.846;9.230;2023-09-19T09:30:57;7.80;;;1.53;;
679;SDS011;322;48.846;9.230;2023-09-19T09:33:25;6.40;;;1.30;;
679;SDS011;322;48.846;9.230;2023-09-19T09:35:57;7.03;;;1.20;;
679;SDS011;322;48.846;9.230;2023-09-19T09:38:28;8.40;;;1.23;;
679;SDS011;322;48.846;9.230;2023-09-19T09:40:59;8.30;;;1.50;;
679;SDS011;322;48.846;9.230;2023-09-19T09:43:29;10.00;;;1.30;;
679;SDS011;322;48.846;9.230;2023-09-19T09:46:09;7.60;;;1.30;;
679;SDS011;322;48.846;9.230;2023-09-19T09:48:59;7.00;;;1.30;;
679;SDS011;322;48.846;9.230;2023-09-19T09:51:48;7.30;;;1.03;;
679;SDS011;322;48.846;9.230;2023-09-19T09:54:26;7.13;;;1.00;;
679;SDS011;322;48.846;9.230;2023-09-19T09:57:01;7.70;;;1.40;;
679;SDS011;322;48.846;9.230;2023-09-19T09:59:46;7.57;;;1.40;;
679;SDS011;322;48.846;9.230;2023-09-19T10:02:19;7.30;;;1.30;;
679;SDS011;322;48.846;9.230;2023-09-19T10:04:52;6.30;;;1.13;;
679;SDS011;322;48.846;9.230;2023-09-19T10:07:27;6.57;;;1.23;;
679;SDS011;322;48.846;9.230;2023-09-19T10:10:02;6.20;;;0.80;;
679;SDS011;322;48.846;9.230;2023-09-19T10:12:44;7.73;;;1.20;;
679;SDS011;322;48.846;9.230;2023-09-19T10:15:15;7.60;;;1.37;;
679;SDS011;322;48.846;9.230;2023-09-19T10:17:49;7.57;;;1.50;;
679;SDS011;322;48.846;9.230;2023-09-19T10:20:22;7.13;;;1.30;;
679;SDS011;322;48.846;9.230;2023-09-19T10:23:05;6.47;;;1.40;;
679;SDS011;322;48.846;9.230;2023-09-19T10:25:39;7.50;;;1.20;;
679;SDS011;322;48.846;9.230;2023-09-19T10:28:08;6.90;;;1.33;;
679;SDS011;322;48.846;9.230;2023-09-19T10:30:40;7.40;;;1.10;;
679;SDS011;322;48.846;9.230;2023-09-19T10:33:10;6.40;;;1.03;;
679;SDS011;322;48.846;9.230;2023-09-19T10:35:43;7.90;;;1.00;;
679;SDS011;322;48.846;9.230;2023-09-19T10:38:14;7.23;;;1.17;;
679;SDS011;322;48.846;9.230;2023-09-19T10:40:48;7.10;;;1.17;;
679;SDS011;322;48.846;9.230;2023-09-19T10:43:18;6.23;;;1.10;;
679;SDS011;322;48.846;9.230;2023-09-19T10:45:48;6.70;;;1.47;;
679;SDS011;322;48.846;9.230;2023-09-19T10:48:19;6.57;;;1.20;;
679;SDS011;322;48.846;9.230;2023-09-19T10:50:56;6.67;;;1.10;;
679;SDS011;322;48.846;9.230;2023-09-19T10:53:45;7.17;;;1.40;;
679;SDS011;322;48.846;9.230;2023-09-19T10:56:18;6.90;;;1.33;;
679;SDS011;322;48.846;9.230;2023-09-19T10:58:51;6.90;;;1.60;;
679;SDS011;322;48.846;9.230;2023-09-19T11:01:19;7.40;;;0.90;;
679;SDS011;322;48.846;9.230;2023-09-19T11:03:50;6.90;;;1.00;;
679;SDS011;322;48.846;9.230;2023-09-19T11:06:59;6.80;;;1.30;;
679;SDS011;322;48.846;9.230;2023-09-19T11:09:49;6.50;;;1.27;;
679;SDS011;322;48.846;9.230;2023-09-19T11:21:38;9.37;;;1.07;;
679;SDS011;322;48.846;9.230;2023-09-19T11:24:27;6.40;;;1.00;;
679;SDS011;322;48.846;9.230;2023-09-19T11:27:15;6.17;;;1.43;;
679;SDS011;322;48.846;9.230;2023-09-19T11:29:44;6.93;;;1.07;;
679;SDS011;322;48.846;9.230;2023-09-19T11:32:13;6.77;;;1.30;;
679;SDS011;322;48.846;9.230;2023-09-19T11:34:44;7.40;;;1.50;;
679;SDS011;322;48.846;9.230;2023-09-19T11:40:33;6.77;;;1.30;;
679;SDS011;322;48.846;9.230;2023-09-19T11:46:05;7.40;;;1.10;;
679;SDS011;322;48.846;9.230;2023-09-19T11:48:39;6.27;;;1.20;;
679;SDS011;322;48.846;9.230;2023-09-19T11:51:14;8.40;;;1.37;;
679;SDS011;322;48.846;9.230;2023-09-19T11:53:48;8.10;;;1.70;;
679;SDS011;322;48.846;9.230;2023-09-19T11:56:18;6.70;;;1.10;;
679;SDS011;322;48.846;9.230;2023-09-19T11:58:50;6.80;;;1.20;;
679;SDS011;322;48.846;9.230;2023-09-19T12:01:22;6.93;;;1.30;;
679;SDS011;322;48.846;9.230;2023-09-19T12:03:52;6.30;;;0.90;;
679;SDS011;322;48.846;9.230;2023-09-19T12:06:23;6.80;;;1.20;;
679;SDS011;322;48.846;9.230;2023-09-19T12:08:53;6.47;;;1.20;;
679;SDS011;322;48.846;9.230;2023-09-19T12:11:23;6.30;;;0.90;;
679;SDS011;322;48.846;9.230;2023-09-19T12:13:56;8.50;;;0.93;;
679;SDS011;322;48.846;9.230;2023-09-19T12:16:26;6.60;;;1.23;;
679;SDS011;322;48.846;9.230;2023-09-19T12:18:57;7.53;;;1.60;;
679;SDS011;322;48.846;9.230;2023-09-19T12:21:26;7.20;;;1.50;;
679;SDS011;322;48.846;9.230;2023-09-19T12:23:59;7.70;;;1.50;;
679;SDS011;322;48.846;9.230;2023-09-19T12:26:38;6.80;;;1.10;;
679;SDS011;322;48.846;9.230;2023-09-19T12:29:16;7.60;;;1.23;;
679;SDS011;322;48.846;9.230;2023-09-19T12:31:51;8.07;;;1.37;;
679;SDS011;322;48.846;9.230;2023-09-19T12:34:22;6.70;;;1.20;;
679;SDS011;322;48.846;9.230;2023-09-19T12:37:09;6.93;;;1.40;;
679;SDS011;322;48.846;9.230;2023-09-19T12:39:39;6.70;;;1.17;;
679;SDS011;322;48.846;9.230;2023-09-19T12:42:09;8.27;;;1.40;;
679;SDS011;322;48.846;9.230;2023-09-19T12:44:45;7.47;;;1.20;;
679;SDS011;322;48.846;9.230;2023-09-19T12:47:15;6.80;;;1.43;;
679;SDS011;322;48.846;9.230;2023-09-19T12:50:04;6.67;;;1.20;;
679;SDS011;322;48.846;9.230;2023-09-19T12:52:41;6.97;;;1.40;;
679;SDS011;322;48.846;9.230;2023-09-19T12:55:21;7.20;;;1.17;;
679;SDS011;322;48.846;9.230;2023-09-19T12:57:56;8.03;;;1.30;;
679;SDS011;322;48.846;9.230;2023-09-19T13:00:43;6.47;;;0.93;;
679;SDS011;322;48.846;9.230;2023-09-19T13:03:12;6.57;;;1.10;;
679;SDS011;322;48.846;9.230;2023-09-19T13:05:46;6.70;;;1.20;;
679;SDS011;322;48.846;9.230;2023-09-19T13:08:26;7.37;;;0.97;;
679;SDS011;322;48.846;9.230;2023-09-19T13:13:50;7.10;;;1.40;;
679;SDS011;322;48.846;9.230;2023-09-19T13:19:36;7.50;;;1.70;;
679;SDS011;322;48.846;9.230;2023-09-19T13:25:08;6.70;;;1.37;;
679;SDS011;322;48.846;9.230;2023-09-19T13:27:40;7.73;;;0.90;;
679;SDS011;322;48.846;9.230;2023-09-19T13:30:10;6.90;;;1.40;;
679;SDS011;322;48.846;9.230;2023-09-19T13:32:40;8.70;;;1.37;;
679;SDS011;322;48.846;9.230;2023-09-19T13:35:10;7.87;;;1.77;;
679;SDS011;322;48.846;9.230;2023-09-19T13:37:39;6.40;;;1.00;;
679;SDS011;322;48.846;9.230;2023-09-19T13:40:09;7.10;;;1.60;;
679;SDS011;322;48.846;9.230;2023-09-19T13:42:38;6.70;;;1.20;;
679;SDS011;322;48.846;9.230;2023-09-19T13:45:07;7.23;;;1.43;;
679;SDS011;322;48.846;9.230;2023-09-19T13:47:38;6.77;;;1.60;;
679;SDS011;322;48.846;9.230;2023-09-19T13:50:08;6.47;;;1.17;;
679;SDS011;322;48.846;9.230;2023-09-19T13:52:37;7.50;;;1.40;;
679;SDS011;322;48.846;9.230;2023-09-19T13:55:05;6.93;;;1.13;;
679;SDS011;322;48.846;9.230;2023-09-19T13:57:33;7.07;;;1.17;;
679;SDS011;322;48.846;9.230;2023-09-19T14:00:02;6.77;;;1.23;;
679;SDS011;322;48.846;9.230;2023-09-19T14:02:31;7.00;;;1.43;;
679;SDS011;322;48.846;9.230;2023-09-19T14:04:59;7.03;;;1.50;;
679;SDS011;322;48.846;9.230;2023-09-19T14:07:29;6.80;;;1.23;;
679;SDS011;322;48.846;9.230;2023-09-19T14:09:57;6.27;;;1.17;;
679;SDS011;322;48.846;9.230;2023-09-19T14:12:25;6.40;;;1.20;;
679;SDS011;322;48.846;9.230;2023-09-19T14:14:53;6.60;;;1.13;;
679;SDS011;322;48.846;9.230;2023-09-19T14:17:22;7.27;;;1.30;;
679;SDS011;322;48.846;9.230;2023-09-19T14:19:52;7.53;;;1.40;;
679;SDS011;322;48.846;9.230;2023-09-19T14:22:20;8.20;;;1.53;;
679;SDS011;322;48.846;9.230;2023-09-19T14:24:49;6.80;;;1.37;;
679;SDS011;322;48.846;9.230;2023-09-19T14:27:18;6.60;;;1.27;;
679;SDS011;322;48.846;9.230;2023-09-19T14:29:46;7.30;;;1.60;;
679;SDS011;322;48.846;9.230;2023-09-19T14:32:14;6.67;;;1.30;;
679;SDS011;322;48.846;9.230;2023-09-19T14:34:42;6.70;;;1.20;;
679;SDS011;322;48.846;9.230;2023-09-19T14:37:11;7.10;;;1.40;;
679;SDS011;322;48.846;9.230;2023-09-19T14:39:40;7.33;;;1.43;;
679;SDS011;322;48.846;9.230;2023-09-19T14:42:12;7.53;;;1.67;;
679;SDS011;322;48.846;9.230;2023-09-19T14:44:43;7.90;;;1.30;;
679;SDS011;322;48.846;9.230;2023-09-19T14:47:13;7.40;;;1.20;;
679;SDS011;322;48.846;9.230;2023-09-19T14:49:43;7.30;;;1.40;;
679;SDS011;322;48.846;9.230;2023-09-19T14:52:11;7.17;;;1.27;;
679;SDS011;322;48.846;9.230;2023-09-19T14:54:42;9.90;;;1.53;;
679;SDS011;322;48.846;9.230;2023-09-19T14:57:10;7.50;;;1.70;;
679;SDS011;322;48.846;9.230;2023-09-19T14:59:41;7.80;;;1.40;;
679;SDS011;322;48.846;9.230;2023-09-19T15:02:09;7.83;;;1.50;;
679;SDS011;322;48.846;9.230;2023-09-19T15:04:37;7.60;;;1.70;;
679;SDS011;322;48.846;9.230;2023-09-19T15:07:07;11.40;;;3.30;;
679;SDS011;322;48.846;9.230;2023-09-19T15:09:35;7.50;;;1.30;;
679;SDS011;322;48.846;9.230;2023-09-19T15:12:04;7.23;;;1.60;;
679;SDS011;322;48.846;9.230;2023-09-19T15:14:33;7.83;;;1.20;;
679;SDS011;322;48.846;9.230;2023-09-19T15:17:02;7.80;;;1.37;;
679;SDS011;322;48.846;9.230;2023-09-19T15:19:31;7.30;;;1.40;;
679;SDS011;322;48.846;9.230;2023-09-19T15:21:59;6.60;;;1.20;;
679;SDS011;322;48.846;9.230;2023-09-19T15:24:27;6.63;;;1.20;;
679;SDS011;322;48.846;9.230;2023-09-19T15:26:55;6.60;;;1.30;;
679;SDS011;322;48.846;9.230;2023-09-19T15:29:23;6.50;;;1.30;;
679;SDS011;322;48.846;9.230;2023-09-19T15:31:52;7.80;;;1.40;;
679;SDS011;322;48.846;9.230;2023-09-19T15:34:25;7.00;;;1.57;;
679;SDS011;322;48.846;9.230;2023-09-19T15:36:52;7.40;;;1.37;;
679;SDS011;322;48.846;9.230;2023-09-19T15:39:20;7.50;;;1.50;;
679;SDS011;322;48.846;9.230;2023-09-19T15:41:49;6.50;;;1.10;;
679;SDS011;322;48.846;9.230;2023-09-19T15:44:18;7.10;;;1.10;;
679;SDS011;322;48.846;9.230;2023-09-19T15:46:46;6.30;;;1.00;;
679;SDS011;322;48.846;9.230;2023-09-19T15:49:14;6.37;;;1.00;;
679;SDS011;322;48.846;9.230;2023-09-19T15:51:43;7.23;;;0.80;;
679;SDS011;322;48.846;9.230;2023-09-19T15:54:12;6.90;;;1.10;;
679;SDS011;322;48.846;9.230;2023-09-19T15:56:41;7.10;;;1.47;;
679;SDS011;322;48.846;9.230;2023-09-19T15:59:09;6.93;;;1.60;;
679;SDS011;322;48.846;9.230;2023-09-19T16:01:39;6.10;;;0.80;;
679;SDS011;322;48.846;9.230;2023-09-19T16:04:09;6.20;;;1.13;;
679;SDS011;322;48.846;9.230;2023-09-19T16:06:38;6.17;;;1.00;;
679;SDS011;322;48.846;9.230;2023-09-19T16:09:08;7.00;;;1.10;;
679;SDS011;322;48.846;9.230;2023-09-19T16:11:37;6.70;;;0.90;;
679;SDS011;322;48.846;9.230;2023-09-19T16:14:05;7.00;;;1.33;;
679;SDS011;322;48.846;9.230;2023-09-19T16:16:34;7.63;;;1.70;;
679;SDS011;322;48.846;9.230;2023-09-19T16:19:03;8.13;;;1.70;;
679;SDS011;322;48.846;9.230;2023-09-19T16:21:36;7.67;;;1.80;;
679;SDS011;322;48.846;9.230;2023-09-19T16:24:06;8.13;;;1.47;;
679;SDS011;322;48.846;9.230;2023-09-19T16:26:37;7.00;;;1.40;;
679;SDS011;322;48.846;9.230;2023-09-19T16:29:05;6.70;;;1.30;;
679;SDS011;322;48.846;9.230;2023-09-19T16:31:33;6.37;;;1.20;;
679;SDS011;322;48.846;9.230;2023-09-19T16:34:02;8.00;;;1.80;;
679;SDS011;322;48.846;9.230;2023-09-19T16:36:30;7.30;;;1.60;;